Time;durP1;ratioP1;P1;durP2;ratioP2;P2;SDS_P1;SDS_P2;PMS_P1;PMS_P2;Temp;Humidity;BMP_temperature;BMP_pressure;BME280_temperature;BME280_humidity;BME280_pressure;Samples;Min_cycle;Max_cycle;Signal;HPM_P1;HPM_P2
2024/01/26 00:01:29;;;;;;;5.63;2.53;;;;;;;5.39;48.71;95303.97;5043769;28;20174;-75
2024/01/26 00:03:57;;;;;;;5.32;2.40;;;;;;;5.40;48.63;95299.28;5045407;28;20037;-74
2024/01/26 00:06:22;;;;;;;5.80;2.28;;;;;;;5.42;48.58;95296.94;5044126;28;20025;-75
2024/01/26 00:08:47;;;;;;;5.50;2.50;;;;;;;5.44;48.29;95300.03;5045405;28;20543;-75
2024/01/26 00:11:17;;;;;;;7.85;3.20;;;;;;;5.41;48.42;95301.59;5044080;28;20029;-73
2024/01/26 00:13:42;;;;;;;9.27;2.38;;;;;;;5.35;48.55;95305.13;5044699;28;20048;-75
2024/01/26 00:16:07;;;;;;;4.50;2.53;;;;;;;5.38;48.59;95316.00;5045351;28;20025;-74
2024/01/26 00:18:33;;;;;;;6.25;2.67;;;;;;;5.39;48.66;95311.34;5044085;28;20122;-74
2024/01/26 00:20:59;;;;;;;5.50;2.40;;;;;;;5.37;48.67;95325.38;5045296;28;20024;-75
2024/01/26 00:23:24;;;;;;;8.48;2.97;;;;;;;5.32;48.80;95328.50;5043585;28;20431;-74
2024/01/26 00:25:49;;;;;;;6.30;2.80;;;;;;;5.37;48.71;95341.72;5045517;28;20049;-74
2024/01/26 00:28:15;;;;;;;7.40;2.80;;;;;;;5.37;48.72;95338.22;5043830;28;20029;-74
2024/01/26 00:30:40;;;;;;;7.55;2.55;;;;;;;5.34;48.75;95342.53;5045282;28;20025;-73
2024/01/26 00:33:06;;;;;;;10.02;2.67;;;;;;;5.32;48.73;95348.34;5044285;28;20029;-75
2024/01/26 00:35:31;;;;;;;6.28;2.45;;;;;;;5.30;48.78;95342.53;5044407;28;20545;-74
2024/01/26 00:37:56;;;;;;;5.68;2.17;;;;;;;5.31;48.70;95352.25;5045507;28;20056;-73
2024/01/26 00:40:22;;;;;;;8.35;2.33;;;;;;;5.33;48.66;95343.69;5043540;28;20628;-74
2024/01/26 00:42:48;;;;;;;6.07;2.45;;;;;;;5.32;48.88;95339.41;5045214;28;20028;-74
2024/01/26 00:45:13;;;;;;;9.88;3.25;;;;;;;5.37;48.52;95341.72;5043345;28;20063;-74
2024/01/26 00:47:39;;;;;;;4.95;2.63;;;;;;;5.34;48.75;95347.97;5044713;28;20024;-74
2024/01/26 00:50:05;;;;;;;5.25;2.13;;;;;;;5.27;48.78;95337.06;5043676;28;20060;-73
2024/01/26 00:52:30;;;;;;;3.58;2.40;;;;;;;5.25;48.64;95340.19;5044506;28;20108;-73
2024/01/26 00:54:56;;;;;;;8.52;2.60;;;;;;;5.21;48.94;95341.38;5044992;28;20025;-75
2024/01/26 00:57:21;;;;;;;5.40;2.40;;;;;;;5.20;48.58;95350.72;5043702;28;20079;-74
2024/01/26 00:59:47;;;;;;;6.88;2.10;;;;;;;5.20;48.59;95353.44;5045164;28;20029;-73
2024/01/26 01:02:13;;;;;;;5.50;1.92;;;;;;;5.27;48.43;95358.88;5043206;28;20559;-75
2024/01/26 01:04:39;;;;;;;5.80;2.10;;;;;;;5.18;48.52;95350.34;5044606;28;20565;-74
2024/01/26 01:07:05;;;;;;;6.10;1.95;;;;;;;5.18;48.35;95350.34;5043413;28;20029;-74
2024/01/26 01:09:31;;;;;;;5.65;2.50;;;;;;;5.13;48.29;95356.19;5043598;28;20484;-72
2024/01/26 01:11:57;;;;;;;6.43;1.85;;;;;;;5.02;48.14;95358.91;5044312;28;20037;-73
2024/01/26 01:14:22;;;;;;;7.22;2.10;;;;;;;5.09;48.12;95348.00;5046596;28;20071;-74
2024/01/26 01:16:48;;;;;;;5.28;2.70;;;;;;;5.10;48.23;95355.00;5048706;28;20056;-73
2024/01/26 01:19:14;;;;;;;3.65;1.67;;;;;;;5.05;47.99;95350.75;5047294;28;20025;-74
2024/01/26 01:21:40;;;;;;;6.15;2.05;;;;;;;5.04;48.50;95356.56;5048442;28;20039;-74
2024/01/26 01:24:05;;;;;;;5.43;1.60;;;;;;;5.00;48.24;95350.38;5047047;28;20820;-75
2024/01/26 01:26:31;;;;;;;6.05;1.92;;;;;;;5.03;48.11;95358.53;5048584;28;20390;-75
2024/01/26 01:28:56;;;;;;;4.35;1.33;;;;;;;4.97;48.46;95353.84;5047336;28;20083;-73
2024/01/26 01:31:21;;;;;;;2.90;1.50;;;;;;;5.01;48.19;95352.69;5047835;28;20021;-74
2024/01/26 01:33:47;;;;;;;4.72;2.40;;;;;;;4.94;48.67;95352.69;5047869;28;20057;-74
2024/01/26 01:36:12;;;;;;;6.43;1.75;;;;;;;4.91;48.59;95352.69;5047027;28;20406;-74
2024/01/26 01:38:37;;;;;;;11.15;2.38;;;;;;;4.98;48.66;95348.00;5048374;28;20025;-73
2024/01/26 01:41:03;;;;;;;5.85;2.42;;;;;;;4.98;48.43;95344.50;5047094;28;20033;-74
2024/01/26 01:43:29;;;;;;;5.05;1.48;;;;;;;4.90;48.86;95353.88;5047683;28;20044;-75
2024/01/26 01:45:54;;;;;;;6.65;2.67;;;;;;;4.95;48.77;95364.38;5046708;28;20110;-73
2024/01/26 01:48:20;;;;;;;6.65;2.00;;;;;;;4.96;48.88;95361.25;5047883;28;20130;-73
2024/01/26 01:50:46;;;;;;;7.30;2.35;;;;;;;4.78;49.30;95355.03;5045827;28;20426;-74
2024/01/26 01:53:12;;;;;;;5.00;2.00;;;;;;;4.76;49.52;95358.16;5046901;28;20067;-73
2024/01/26 01:55:39;;;;;;;5.18;2.08;;;;;;;4.72;49.80;95354.66;5046761;28;20040;-72
2024/01/26 01:58:04;;;;;;;7.25;2.30;;;;;;;4.63;49.85;95361.63;5045535;28;20519;-73
2024/01/26 02:00:31;;;;;;;8.45;1.95;;;;;;;4.64;50.10;95374.06;5047872;28;20194;-74
2024/01/26 02:02:57;;;;;;;9.07;2.00;;;;;;;4.64;50.20;95365.91;5046769;28;20048;-74
2024/01/26 02:05:22;;;;;;;3.63;1.75;;;;;;;4.67;50.27;95368.66;5047601;28;20403;-74
2024/01/26 02:07:49;;;;;;;4.72;1.70;;;;;;;4.56;50.29;95377.97;5047057;28;20033;-74
2024/01/26 02:10:15;;;;;;;7.55;1.83;;;;;;;4.55;50.37;95374.47;5046878;28;20464;-75
2024/01/26 02:12:40;;;;;;;5.60;1.73;;;;;;;4.52;50.27;95376.00;5047405;28;20029;-74
2024/01/26 02:15:08;;;;;;;6.97;1.90;;;;;;;4.50;50.39;95374.84;5046689;28;20109;-74
2024/01/26 02:17:34;;;;;;;10.15;2.78;;;;;;;4.51;50.56;95379.13;5047422;28;20053;-74
2024/01/26 02:19:59;;;;;;;4.07;1.70;;;;;;;4.62;50.22;95384.59;5046281;28;20025;-74
2024/01/26 02:22:25;;;;;;;4.22;1.88;;;;;;;4.57;50.41;95379.53;5046965;28;20040;-74
2024/01/26 02:24:51;;;;;;;9.18;2.13;;;;;;;4.65;49.99;95371.00;5044994;28;20557;-73
2024/01/26 02:27:18;;;;;;;4.80;1.95;;;;;;;4.62;49.97;95376.41;5046807;28;20029;-73
2024/01/26 02:29:43;;;;;;;4.45;2.08;;;;;;;4.53;50.13;95369.41;5046823;28;20510;-73
2024/01/26 02:32:09;;;;;;;7.30;1.95;;;;;;;4.65;49.90;95372.94;5046285;28;20108;-74
2024/01/26 02:34:34;;;;;;;4.93;1.48;;;;;;;4.62;49.94;95368.25;5047163;28;20564;-74
2024/01/26 02:37:00;;;;;;;9.55;1.80;;;;;;;4.64;49.95;95361.25;5046210;28;20440;-74
2024/01/26 02:39:25;;;;;;;5.70;2.42;;;;;;;4.63;49.94;95372.53;5045687;28;20372;-73
2024/01/26 02:41:51;;;;;;;6.10;1.98;;;;;;;4.64;49.93;95366.69;5045679;28;20112;-75
2024/01/26 02:44:16;;;;;;;5.15;2.50;;;;;;;4.66;49.83;95372.53;5046552;28;20104;-75
2024/01/26 02:46:45;;;;;;;6.35;1.98;;;;;;;4.62;50.05;95371.75;5045939;28;20024;-74
2024/01/26 02:49:11;;;;;;;5.90;2.10;;;;;;;4.72;49.76;95365.53;5046252;28;20033;-74
2024/01/26 02:51:36;;;;;;;7.53;1.83;;;;;;;4.80;49.43;95369.03;5047370;28;20027;-73
2024/01/26 02:54:02;;;;;;;6.50;2.10;;;;;;;4.78;49.58;95371.38;5045831;28;20032;-74
2024/01/26 02:56:28;;;;;;;6.10;1.63;;;;;;;4.72;49.63;95379.16;5046960;28;20028;-75
2024/01/26 02:58:53;;;;;;;7.53;2.50;;;;;;;4.65;49.79;95381.88;5045490;28;20067;-74
2024/01/26 03:01:19;;;;;;;8.20;2.10;;;;;;;4.72;49.63;95375.66;5046447;28;20447;-74
2024/01/26 03:03:44;;;;;;;6.60;2.08;;;;;;;4.75;49.69;95377.59;5045404;28;20021;-74
2024/01/26 03:06:13;;;;;;;9.40;2.63;;;;;;;4.85;49.33;95362.44;5046272;28;20029;-74
2024/01/26 03:08:38;;;;;;;7.68;1.95;;;;;;;4.91;49.38;95375.25;5046335;28;20033;-74
2024/01/26 03:11:04;;;;;;;5.13;1.95;;;;;;;4.89;49.42;95383.06;5045533;28;20032;-74
2024/01/26 03:13:30;;;;;;;4.63;2.15;;;;;;;4.91;49.36;95383.44;5044969;28;20056;-74
2024/01/26 03:15:55;;;;;;;3.80;2.10;;;;;;;4.91;49.51;95386.16;5045251;28;20106;-74
2024/01/26 03:18:21;;;;;;;4.47;1.85;;;;;;;4.98;49.35;95380.72;5045876;28;20045;-74
2024/01/26 03:20:47;;;;;;;7.53;2.28;;;;;;;5.03;49.07;95387.72;5044897;28;20094;-74
2024/01/26 03:23:12;;;;;;;7.97;1.80;;;;;;;5.01;49.26;95384.63;5046003;28;20150;-75
2024/01/26 03:25:38;;;;;;;9.48;2.10;;;;;;;5.03;49.09;95377.59;5045515;28;20159;-74
2024/01/26 03:28:03;;;;;;;8.75;2.00;;;;;;;5.01;49.23;95371.75;5045682;28;20423;-74
2024/01/26 03:30:29;;;;;;;8.35;2.05;;;;;;;5.04;49.07;95376.41;5046024;28;20047;-74
2024/01/26 03:32:54;;;;;;;8.40;2.25;;;;;;;5.07;49.16;95374.88;5044990;28;20060;-74
2024/01/26 03:35:20;;;;;;;6.65;2.15;;;;;;;5.07;48.98;95362.03;5045981;28;20492;-74
2024/01/26 03:37:45;;;;;;;8.55;2.40;;;;;;;5.04;49.30;95362.03;5044716;28;20035;-74
2024/01/26 03:40:11;;;;;;;7.30;2.67;;;;;;;5.04;49.33;95365.53;5044373;28;20534;-74
2024/01/26 03:42:37;;;;;;;5.60;1.95;;;;;;;5.04;49.30;95356.56;5043100;28;20472;-74
2024/01/26 03:45:03;;;;;;;7.25;2.70;;;;;;;4.99;49.58;95365.94;5045300;28;20032;-74
2024/01/26 03:47:28;;;;;;;5.07;1.98;;;;;;;5.05;49.50;95366.31;5045613;28;20334;-75
2024/01/26 03:49:54;;;;;;;6.45;1.75;;;;;;;5.01;49.23;95362.81;5044884;28;20032;-74
2024/01/26 03:52:19;;;;;;;5.68;1.83;;;;;;;5.06;49.21;95365.16;5045597;28;20025;-74
2024/01/26 03:54:45;;;;;;;4.53;2.25;;;;;;;4.99;49.25;95363.22;5044596;28;20462;-74
2024/01/26 03:57:10;;;;;;;7.32;2.55;;;;;;;5.02;49.44;95369.81;5045658;28;20056;-75
2024/01/26 03:59:36;;;;;;;4.45;1.60;;;;;;;4.96;49.46;95361.25;5042702;28;20111;-74
2024/01/26 04:02:01;;;;;;;3.63;2.13;;;;;;;4.98;49.33;95369.03;5043779;28;20411;-74
2024/01/26 04:04:27;;;;;;;11.27;2.40;;;;;;;5.01;49.09;95368.25;5044340;28;20029;-73
2024/01/26 04:06:52;;;;;;;4.85;1.85;;;;;;;5.00;49.21;95369.44;5044764;28;20025;-73
2024/01/26 04:09:17;;;;;;;5.00;2.10;;;;;;;5.04;48.99;95370.19;5045281;28;20033;-72
2024/01/26 04:11:43;;;;;;;3.72;1.48;;;;;;;5.04;48.98;95387.31;5044566;28;20032;-74
2024/01/26 04:14:08;;;;;;;8.38;2.33;;;;;;;5.05;48.82;95369.06;5045551;28;20468;-74
2024/01/26 04:16:34;;;;;;;7.68;2.33;;;;;;;5.10;48.57;95376.81;5043847;28;20031;-73
2024/01/26 04:18:59;;;;;;;4.63;2.00;;;;;;;5.08;48.49;95387.34;5045447;28;20110;-74
2024/01/26 04:21:24;;;;;;;7.03;2.00;;;;;;;5.10;48.54;95386.94;5043896;28;20438;-74
2024/01/26 04:23:50;;;;;;;8.95;2.67;;;;;;;5.09;48.49;95393.56;5044884;28;20108;-74
2024/01/26 04:26:16;;;;;;;6.70;1.80;;;;;;;5.18;48.51;95402.13;5044566;28;20036;-74
2024/01/26 04:28:42;;;;;;;5.53;2.00;;;;;;;5.17;48.45;95406.03;5044225;28;20483;-74
2024/01/26 04:31:07;;;;;;;6.70;2.20;;;;;;;5.21;48.27;95404.06;5045510;28;20086;-74
2024/01/26 04:33:33;;;;;;;5.68;1.92;;;;;;;5.19;48.28;95401.72;5043494;28;20080;-74
2024/01/26 04:35:59;;;;;;;7.88;2.67;;;;;;;5.31;47.96;95403.28;5045082;28;20033;-74
2024/01/26 04:38:24;;;;;;;6.22;2.00;;;;;;;5.32;47.82;95410.28;5042374;28;20021;-74
2024/01/26 04:40:49;;;;;;;10.73;2.67;;;;;;;5.27;47.99;95408.72;5045263;28;20491;-74
2024/01/26 04:43:15;;;;;;;11.65;2.50;;;;;;;5.24;47.72;95411.47;5044330;28;20577;-74
2024/01/26 04:45:40;;;;;;;4.35;1.70;;;;;;;5.21;47.77;95401.34;5043970;28;20044;-75
2024/01/26 04:48:07;;;;;;;4.93;2.03;;;;;;;5.13;48.16;95413.41;5047623;28;20130;-74
2024/01/26 04:50:32;;;;;;;6.85;1.98;;;;;;;5.17;47.97;95414.22;5050078;28;20056;-74
2024/01/26 04:52:58;;;;;;;6.60;1.90;;;;;;;5.17;48.11;95408.75;5051655;28;20029;-75
2024/01/26 04:55:32;;;;;;;7.30;1.90;;;;;;;5.18;48.06;95418.47;5050084;28;20025;-74
2024/01/26 04:57:57;;;;;;;5.45;3.10;;;;;;;5.22;48.05;95420.03;5051456;28;20559;-74
2024/01/26 05:00:23;;;;;;;5.65;1.98;;;;;;;5.21;47.90;95412.22;5050414;28;20050;-75
2024/01/26 05:02:49;;;;;;;5.68;2.00;;;;;;;5.22;47.99;95405.63;5050763;28;20130;-75
2024/01/26 05:05:14;;;;;;;4.88;2.13;;;;;;;5.25;47.82;95404.84;5051397;28;20021;-75
2024/01/26 05:07:40;;;;;;;7.90;2.40;;;;;;;5.27;47.87;95407.94;5049109;28;20109;-75
2024/01/26 05:10:06;;;;;;;9.05;2.38;;;;;;;5.28;47.61;95404.06;5051910;28;20017;-75
2024/01/26 05:12:32;;;;;;;7.60;3.00;;;;;;;5.11;48.08;95394.75;5050134;28;20029;-74
2024/01/26 05:14:57;;;;;;;9.75;2.55;;;;;;;4.96;48.46;95398.63;5051210;28;20033;-73
2024/01/26 05:17:23;;;;;;;6.53;2.38;;;;;;;4.94;48.63;95399.03;5049731;28;20084;-74
2024/01/26 05:19:48;;;;;;;6.50;2.55;;;;;;;4.88;48.79;95397.06;5051176;28;20025;-75
2024/01/26 05:22:14;;;;;;;6.00;2.70;;;;;;;4.89;48.73;95402.13;5050496;28;20044;-74
2024/01/26 05:24:39;;;;;;;5.53;2.22;;;;;;;4.76;49.01;95390.06;5050476;28;20043;-77
2024/01/26 05:27:05;;;;;;;6.30;2.00;;;;;;;4.74;49.16;95408.72;5051554;28;20119;-74
2024/01/26 05:29:30;;;;;;;7.30;2.30;;;;;;;4.62;49.35;95404.44;5049754;28;20029;-76
2024/01/26 05:31:56;;;;;;;6.95;2.35;;;;;;;4.65;49.42;95413.78;5051191;28;20044;-75
2024/01/26 05:34:21;;;;;;;8.77;2.50;;;;;;;4.71;49.14;95417.69;5049828;28;20071;-75
2024/01/26 05:36:46;;;;;;;7.25;2.22;;;;;;;4.71;49.00;95407.56;5049601;28;20029;-75
2024/01/26 05:39:12;;;;;;;6.90;2.25;;;;;;;4.70;48.78;95416.91;5050404;28;20025;-75
2024/01/26 05:41:37;;;;;;;10.57;2.13;;;;;;;4.74;48.87;95427.78;5050873;28;20033;-75
2024/01/26 05:44:04;;;;;;;6.47;2.40;;;;;;;4.76;48.75;95430.94;5050930;28;20028;-75
2024/01/26 05:46:29;;;;;;;4.93;2.15;;;;;;;4.75;48.71;95435.56;5049791;28;20078;-76
2024/01/26 05:48:56;;;;;;;6.93;2.45;;;;;;;4.67;48.51;95444.13;5051130;28;20028;-75
2024/01/26 05:51:22;;;;;;;8.30;2.33;;;;;;;4.66;48.88;95450.75;5049737;28;20529;-75
2024/01/26 05:53:47;;;;;;;6.30;1.90;;;;;;;4.73;48.74;95456.19;5051227;28;20498;-75
2024/01/26 05:56:12;;;;;;;6.38;2.47;;;;;;;4.70;48.85;95455.03;5049720;28;20049;-76
2024/01/26 05:58:38;;;;;;;6.82;2.70;;;;;;;4.77;48.66;95455.03;5050779;28;20033;-75
2024/01/26 06:01:04;;;;;;;7.32;2.50;;;;;;;4.79;48.58;95454.66;5047151;28;20029;-75
2024/01/26 06:03:29;;;;;;;10.30;2.30;;;;;;;4.77;48.67;95454.28;5046928;28;20032;-75
2024/01/26 06:05:55;;;;;;;6.93;2.42;;;;;;;4.85;48.28;95453.09;5047793;28;20507;-73
2024/01/26 06:08:20;;;;;;;7.93;2.20;;;;;;;4.80;48.66;95467.09;5046411;28;20079;-76
2024/01/26 06:10:46;;;;;;;4.20;1.80;;;;;;;4.83;48.70;95458.16;5047953;28;20033;-74
2024/01/26 06:13:11;;;;;;;6.82;2.17;;;;;;;4.83;48.57;95455.44;5046495;28;20472;-75
2024/01/26 06:15:37;;;;;;;4.78;2.22;;;;;;;4.85;48.32;95452.31;5047538;28;20029;-75
2024/01/26 06:18:03;;;;;;;9.23;2.10;;;;;;;4.84;48.32;95448.81;5046386;28;20532;-74
2024/01/26 06:20:33;;;;;;;7.00;2.50;;;;;;;4.84;48.25;95442.59;5046575;28;20115;-76
2024/01/26 06:22:59;;;;;;;9.52;2.83;;;;;;;4.79;48.10;95454.66;5047465;28;20115;-75
2024/01/26 06:25:25;;;;;;;8.32;2.35;;;;;;;4.76;48.37;95439.88;5045786;28;20033;-74
2024/01/26 06:27:50;;;;;;;5.85;2.05;;;;;;;4.80;48.39;95451.53;5047580;28;20025;-76
2024/01/26 06:30:16;;;;;;;7.47;1.95;;;;;;;4.85;48.23;95447.66;5046278;28;20155;-75
2024/01/26 06:32:42;;;;;;;5.03;1.95;;;;;;;4.84;47.90;95454.28;5047098;28;20065;-74
2024/01/26 06:35:09;;;;;;;7.65;2.33;;;;;;;4.85;48.05;95461.28;5046013;28;20464;-74
2024/01/26 06:37:34;;;;;;;4.35;2.13;;;;;;;4.83;48.17;95450.00;5046736;28;20087;-76
2024/01/26 06:39:59;;;;;;;5.43;1.85;;;;;;;4.78;48.11;95456.59;5047354;28;20017;-75
2024/01/26 06:42:29;;;;;;;6.13;1.95;;;;;;;4.76;48.35;95467.09;5046042;28;20464;-74
2024/01/26 06:44:55;;;;;;;7.57;1.95;;;;;;;4.79;48.10;95458.16;5047227;28;20105;-76
2024/01/26 06:47:20;;;;;;;5.78;2.00;;;;;;;4.78;48.29;95459.31;5045905;28;20112;-76
2024/01/26 06:49:46;;;;;;;4.90;2.13;;;;;;;4.74;48.25;95466.69;5046849;28;20036;-78
2024/01/26 06:52:11;;;;;;;4.45;2.17;;;;;;;4.75;48.23;95464.75;5045588;28;20029;-76
2024/01/26 06:54:40;;;;;;;6.88;2.55;;;;;;;4.74;48.65;95463.97;5046865;28;20029;-76
2024/01/26 06:57:06;;;;;;;4.22;1.92;;;;;;;4.71;48.10;95462.03;5046223;28;20063;-76
2024/01/26 06:59:32;;;;;;;7.30;2.05;;;;;;;4.86;48.12;95467.50;5046009;28;20060;-76
2024/01/26 07:01:58;;;;;;;8.40;2.38;;;;;;;4.75;48.51;95475.66;5046687;28;20087;-76
2024/01/26 07:04:23;;;;;;;5.93;1.90;;;;;;;4.87;48.12;95482.69;5044913;28;20028;-74
2024/01/26 07:06:49;;;;;;;7.85;2.00;;;;;;;4.91;47.67;95484.25;5046884;28;20033;-74
2024/01/26 07:09:14;;;;;;;5.57;1.83;;;;;;;4.93;47.45;95472.94;5045260;28;20415;-74
2024/01/26 07:11:40;;;;;;;5.45;2.50;;;;;;;5.01;47.22;95478.03;5045688;28;20033;-78
2024/01/26 07:14:05;;;;;;;5.32;1.50;;;;;;;5.03;47.13;95483.88;5045400;28;20032;-76
2024/01/26 07:16:31;;;;;;;7.07;2.10;;;;;;;5.09;47.35;95478.03;5045676;28;20036;-76
2024/01/26 07:18:56;;;;;;;4.00;1.90;;;;;;;5.17;46.80;95463.28;5046297;28;20135;-75
2024/01/26 07:21:22;;;;;;;2.22;1.63;;;;;;;5.21;46.74;95478.44;5045636;28;20048;-75
2024/01/26 07:23:50;;;;;;;4.28;2.03;;;;;;;5.34;46.06;95478.84;5046230;28;20263;-75
2024/01/26 07:26:19;;;;;;;5.22;2.00;;;;;;;5.41;46.12;95495.19;5044992;28;20029;-75
2024/01/26 07:28:45;;;;;;;5.13;2.63;;;;;;;5.51;46.21;95497.16;5045805;28;20111;-80
2024/01/26 07:31:11;;;;;;;4.40;1.67;;;;;;;5.51;45.69;95488.97;5045078;28;20070;-75
2024/01/26 07:33:36;;;;;;;7.72;2.00;;;;;;;5.65;45.64;95496.34;5045614;28;20044;-74
2024/01/26 07:36:02;;;;;;;6.25;1.85;;;;;;;5.74;45.11;95498.69;5045553;28;20025;-73
2024/01/26 07:38:27;;;;;;;4.55;1.50;;;;;;;5.83;45.20;95499.06;5045007;28;20196;-73
2024/01/26 07:40:53;;;;;;;3.72;1.40;;;;;;;5.90;45.08;95493.56;5045972;28;20029;-74
2024/01/26 07:43:19;;;;;;;6.28;1.92;;;;;;;5.96;44.70;95486.56;5045239;28;20087;-73
2024/01/26 07:45:44;;;;;;;4.80;1.65;;;;;;;6.10;44.37;95502.94;5045781;28;20173;-73
2024/01/26 07:48:12;;;;;;;4.45;1.95;;;;;;;6.18;44.27;95486.53;5044872;28;20027;-74
2024/01/26 07:50:40;;;;;;;4.15;2.10;;;;;;;6.39;44.06;95498.16;5045860;28;20035;-73
2024/01/26 07:53:05;;;;;;;6.53;2.60;;;;;;;6.55;44.04;95494.97;5043244;28;20509;-75
2024/01/26 07:55:30;;;;;;;5.90;2.22;;;;;;;6.77;43.44;95486.69;5044791;28;20054;-73
2024/01/26 07:57:56;;;;;;;3.85;1.63;;;;;;;6.97;42.73;95489.69;5045573;28;20033;-73
2024/01/26 08:00:21;;;;;;;5.22;1.83;;;;;;;7.28;42.19;95505.09;5044259;28;20021;-72
2024/01/26 08:02:47;;;;;;;6.25;2.13;;;;;;;7.56;41.44;95506.06;5045618;28;20025;-75
2024/01/26 08:05:12;;;;;;;4.05;1.70;;;;;;;7.92;40.77;95504.59;5044636;28;20018;-73
2024/01/26 08:07:38;;;;;;;5.20;1.85;;;;;;;8.21;40.19;95510.56;5044966;28;20028;-73
2024/01/26 08:10:03;;;;;;;3.92;1.77;;;;;;;8.72;39.35;95511.56;5044307;28;20032;-73
2024/01/26 08:12:29;;;;;;;6.90;2.40;;;;;;;9.54;38.40;95510.41;5045123;28;20048;-74
2024/01/26 08:14:54;;;;;;;6.47;2.08;;;;;;;10.56;35.99;95513.78;5045174;28;20416;-74
2024/01/26 08:17:20;;;;;;;6.95;2.08;;;;;;;11.68;33.98;95513.69;5044209;28;20045;-74
2024/01/26 08:19:45;;;;;;;6.35;2.05;;;;;;;12.95;31.49;95522.59;5045103;28;20024;-74
2024/01/26 08:22:10;;;;;;;6.55;2.17;;;;;;;13.86;29.98;95521.47;5043651;28;20039;-73
2024/01/26 08:24:36;;;;;;;5.68;1.48;;;;;;;14.80;28.58;95531.75;5044337;28;20454;-75
2024/01/26 08:27:02;;;;;;;5.13;2.53;;;;;;;15.18;27.72;95520.44;5042504;28;20124;-74
2024/01/26 08:29:27;;;;;;;7.75;2.00;;;;;;;15.76;26.98;95527.34;5044775;28;20480;-74
2024/01/26 08:31:53;;;;;;;5.03;2.00;;;;;;;15.78;26.63;95528.47;5044228;28;20052;-74
2024/01/26 08:34:19;;;;;;;4.38;1.70;;;;;;;16.26;26.08;95511.47;5042822;28;20029;-73
2024/01/26 08:36:44;;;;;;;5.15;2.03;;;;;;;16.72;25.78;95521.41;5045105;28;20036;-74
2024/01/26 08:39:12;;;;;;;6.15;1.98;;;;;;;17.37;24.62;95521.28;5044018;28;20071;-73
2024/01/26 08:41:39;;;;;;;4.57;2.17;;;;;;;17.98;23.65;95516.47;5044904;28;20119;-75
2024/01/26 08:44:04;;;;;;;3.97;2.00;;;;;;;18.49;23.41;95529.44;5043972;28;20025;-74
2024/01/26 08:46:30;;;;;;;3.38;1.65;;;;;;;18.18;23.36;95515.88;5044810;28;20032;-73
2024/01/26 08:48:55;;;;;;;3.97;1.60;;;;;;;18.53;22.77;95522.47;5044067;28;20032;-74
2024/01/26 08:51:21;;;;;;;7.13;2.38;;;;;;;18.84;22.54;95521.31;5044712;28;20486;-75
2024/01/26 08:53:47;;;;;;;7.40;1.85;;;;;;;19.22;22.16;95520.50;5044402;28;20033;-75
2024/01/26 08:56:14;;;;;;;4.53;2.20;;;;;;;19.82;21.84;95513.66;5044145;28;20159;-74
2024/01/26 08:58:40;;;;;;;3.95;1.63;;;;;;;19.60;21.64;95538.41;5044703;28;20025;-74
2024/01/26 09:01:06;;;;;;;3.63;1.77;;;;;;;20.31;20.90;95523.25;5043368;28;20035;-73
2024/01/26 09:03:32;;;;;;;4.97;1.55;;;;;;;20.48;20.70;95540.28;5044660;28;20025;-74
2024/01/26 09:05:58;;;;;;;4.88;1.80;;;;;;;21.07;20.66;95522.41;5043784;28;20033;-75
2024/01/26 09:08:23;;;;;;;5.38;1.70;;;;;;;20.82;20.36;95530.28;5044593;28;20033;-75
2024/01/26 09:10:49;;;;;;;5.63;1.80;;;;;;;21.37;19.84;95526.56;5043886;28;20055;-74
2024/01/26 09:13:14;;;;;;;4.10;1.88;;;;;;;21.60;19.75;95530.31;5043159;28;20021;-74
2024/01/26 09:15:40;;;;;;;6.32;1.85;;;;;;;21.44;19.57;95533.72;5043444;28;20032;-74
2024/01/26 09:18:05;;;;;;;6.68;1.60;;;;;;;21.07;19.67;95514.78;5043322;28;20134;-74
2024/01/26 09:20:30;;;;;;;2.63;1.42;;;;;;;21.62;19.33;95521.44;5044739;28;20407;-75
2024/01/26 09:22:56;;;;;;;3.65;1.63;;;;;;;22.11;18.94;95523.09;5043298;28;20653;-75
2024/01/26 09:25:22;;;;;;;5.47;1.77;;;;;;;22.10;18.71;95529.97;5044582;28;20032;-74
2024/01/26 09:27:47;;;;;;;3.97;1.42;;;;;;;22.76;18.20;95514.78;5043499;28;20452;-74
2024/01/26 09:30:13;;;;;;;3.60;1.75;;;;;;;22.53;18.54;95510.34;5044118;28;20511;-75
2024/01/26 09:32:38;;;;;;;5.43;2.28;;;;;;;23.30;17.58;95514.72;5044034;28;20028;-74
2024/01/26 09:35:04;;;;;;;3.90;1.67;;;;;;;23.38;17.67;95517.78;5045301;28;20025;-74
2024/01/26 09:37:29;;;;;;;5.68;1.95;;;;;;;23.27;17.84;95512.16;5048478;28;20441;-75
2024/01/26 09:39:55;;;;;;;3.38;1.52;;;;;;;24.05;17.35;95511.44;5047118;28;20433;-74
2024/01/26 09:42:20;;;;;;;3.83;1.60;;;;;;;24.19;16.81;95513.19;5047998;28;20067;-75
2024/01/26 09:44:46;;;;;;;3.05;1.52;;;;;;;24.31;16.87;95513.94;5046727;28;20078;-74
2024/01/26 09:47:14;;;;;;;4.60;1.88;;;;;;;24.87;16.19;95514.56;5047926;28;20033;-74
2024/01/26 09:49:46;;;;;;;5.18;1.65;;;;;;;25.10;16.10;95492.75;5047187;28;20036;-75
2024/01/26 09:52:12;;;;;;;6.30;1.95;;;;;;;24.10;16.50;95511.44;5047123;28;20108;-74
2024/01/26 09:54:38;;;;;;;5.10;1.60;;;;;;;24.31;16.11;95508.31;5046745;28;20094;-75
2024/01/26 09:57:07;;;;;;;4.82;1.90;;;;;;;24.45;16.00;95496.06;5045080;28;20094;-73
2024/01/26 09:59:32;;;;;;;3.75;1.38;;;;;;;24.24;16.28;95503.25;5047766;28;20487;-73
2024/01/26 10:02:00;;;;;;;5.93;1.80;;;;;;;24.95;15.98;95489.50;5046451;28;20075;-75
2024/01/26 10:04:26;;;;;;;4.80;1.75;;;;;;;24.87;16.06;95499.75;5046645;28;20136;-74
2024/01/26 10:06:51;;;;;;;5.50;1.80;;;;;;;24.70;15.81;95474.50;5047048;28;20104;-75
2024/01/26 10:09:17;;;;;;;4.00;1.83;;;;;;;25.32;15.41;95474.19;5046929;28;20545;-74
2024/01/26 10:11:43;;;;;;;5.60;2.78;;;;;;;25.65;15.11;95464.75;5047769;28;20021;-74
2024/01/26 10:14:08;;;;;;;5.68;2.47;;;;;;;25.34;15.31;95466.00;5046308;28;20017;-74
2024/01/26 10:16:33;;;;;;;5.68;2.17;;;;;;;24.86;15.60;95465.22;5047181;28;20048;-73
2024/01/26 10:18:59;;;;;;;3.83;1.70;;;;;;;25.47;14.97;95452.09;5046377;28;20065;-75
2024/01/26 10:21:24;;;;;;;4.35;1.80;;;;;;;25.34;15.32;95441.44;5047609;28;20061;-74
2024/01/26 10:23:50;;;;;;;3.55;1.60;;;;;;;25.18;15.31;95458.44;5046157;28;20341;-75
2024/01/26 10:26:15;;;;;;;5.10;1.80;;;;;;;25.92;14.89;95452.50;5048084;28;20033;-73
2024/01/26 10:28:43;;;;;;;3.67;1.83;;;;;;;24.83;15.12;95455.03;5047026;28;20050;-74
2024/01/26 10:31:08;;;;;;;4.22;2.10;;;;;;;25.64;14.50;95443.53;5044810;28;20029;-74
2024/01/26 10:33:36;;;;;;;5.13;1.70;;;;;;;26.07;14.34;95449.28;5047581;28;20021;-74
2024/01/26 10:36:02;;;;;;;4.50;2.13;;;;;;;26.06;14.56;95459.03;5044707;28;20033;-74
2024/01/26 10:38:31;;;;;;;5.75;1.75;;;;;;;25.89;14.18;95456.38;5047273;28;20048;-74
2024/01/26 10:41:03;;;;;;;4.00;1.98;;;;;;;26.24;13.96;95460.38;5045818;28;20071;-74
2024/01/26 10:43:30;;;;;;;2.80;1.45;;;;;;;26.17;14.05;95447.63;5046816;28;20043;-74
2024/01/26 10:46:01;;;;;;;5.20;1.52;;;;;;;26.32;13.81;95441.56;5045806;28;20403;-75
2024/01/26 10:48:27;;;;;;;4.38;1.75;;;;;;;27.06;13.25;95436.59;5046019;28;20025;-75
2024/01/26 10:50:53;;;;;;;6.18;1.98;;;;;;;26.99;13.45;95457.69;5047119;28;20020;-74
2024/01/26 10:53:18;;;;;;;5.00;1.77;;;;;;;25.83;14.06;95438.00;5044315;28;20028;-74
2024/01/26 10:55:44;;;;;;;3.63;1.95;;;;;;;25.55;14.49;95438.22;5046614;28;20021;-75
2024/01/26 10:58:10;;;;;;;4.95;2.70;;;;;;;26.87;13.48;95435.81;5045491;28;20037;-74
2024/01/26 11:00:35;;;;;;;5.53;2.28;;;;;;;26.67;13.38;95440.69;5046403;28;20467;-73
2024/01/26 11:03:03;;;;;;;6.15;2.38;;;;;;;27.55;12.90;95444.09;5046611;28;20032;-75
2024/01/26 11:05:28;;;;;;;5.05;2.03;;;;;;;27.29;13.09;95419.31;5046325;28;20032;-74
2024/01/26 11:07:54;;;;;;;3.78;2.08;;;;;;;27.48;13.04;95422.88;5046661;28;20032;-75
2024/01/26 11:10:23;;;;;;;5.15;1.50;;;;;;;26.99;13.05;95412.56;5045671;28;20074;-73
2024/01/26 11:13:02;;;;;;;4.93;2.05;;;;;;;27.88;12.58;95411.72;5045004;28;20021;-73
2024/01/26 11:15:28;;;;;;;5.68;2.22;;;;;;;27.92;12.64;95412.91;5045685;28;20121;-73
2024/01/26 11:17:56;;;;;;;4.07;1.70;;;;;;;28.34;12.59;95418.84;5045895;28;20057;-75
2024/01/26 11:20:30;;;;;;;5.07;1.75;;;;;;;27.64;13.09;95433.16;5045938;28;20037;-73
2024/01/26 11:23:04;;;;;;;6.93;2.03;;;;;;;28.17;12.47;95427.63;5045100;28;20455;-74
2024/01/26 11:25:34;;;;;;;5.53;1.92;;;;;;;27.89;12.66;95430.19;5046478;28;20023;-73
2024/01/26 11:28:01;;;;;;;5.35;1.48;;;;;;;26.72;13.34;95431.41;5044904;28;20032;-73
2024/01/26 11:30:27;;;;;;;4.25;1.85;;;;;;;25.46;14.34;95410.38;5046064;28;20028;-73
2024/01/26 11:32:53;;;;;;;5.25;1.70;;;;;;;23.87;15.65;95391.28;5043655;28;20566;-75